sensor_id;sensor_type;location;lat;lon;timestamp;P1;durP1;ratioP1;P2;durP2;ratioP2
45887;SDS011;31595;51.418;7.572;2023-05-10T00:00:12;4.82;;;2.10;;
45887;SDS011;31595;51.418;7.572;2023-05-10T00:02:40;3.00;;;2.20;;
45887;SDS011;31595;51.418;7.572;2023-05-10T00:05:07;3.00;;;2.38;;
45887;SDS011;31595;51.418;7.572;2023-05-10T00:07:35;3.05;;;2.08;;
45887;SDS011;31595;51.418;7.572;2023-05-10T00:10:02;2.55;;;2.05;;
45887;SDS011;31595;51.418;7.572;2023-05-10T00:12:33;2.97;;;1.90;;
45887;SDS011;31595;51.418;7.572;2023-05-10T00:15:03;2.40;;;2.05;;
45887;SDS011;31595;51.418;7.572;2023-05-10T00:17:33;2.22;;;1.88;;
45887;SDS011;31595;51.418;7.572;2023-05-10T00:20:01;3.07;;;1.83;;
45887;SDS011;31595;51.418;7.572;2023-05-10T00:22:32;2.65;;;2.00;;
45887;SDS011;31595;51.418;7.572;2023-05-10T00:27:26;2.58;;;2.00;;
45887;SDS011;31595;51.418;7.572;2023-05-10T00:29:57;2.50;;;1.85;;
45887;SDS011;31595;51.418;7.572;2023-05-10T00:32:24;2.95;;;2.00;;
45887;SDS011;31595;51.418;7.572;2023-05-10T00:34:53;2.83;;;2.05;;
45887;SDS011;31595;51.418;7.572;2023-05-10T00:37:20;3.83;;;2.87;;
45887;SDS011;31595;51.418;7.572;2023-05-10T00:39:47;3.53;;;2.45;;
45887;SDS011;31595;51.418;7.572;2023-05-10T00:42:14;3.03;;;2.30;;
45887;SDS011;31595;51.418;7.572;2023-05-10T00:44:42;2.83;;;2.20;;
45887;SDS011;31595;51.418;7.572;2023-05-10T00:47:10;3.35;;;2.22;;
45887;SDS011;31595;51.418;7.572;2023-05-10T00:49:38;3.65;;;2.58;;
45887;SDS011;31595;51.418;7.572;2023-05-10T00:52:07;3.05;;;2.05;;
45887;SDS011;31595;51.418;7.572;2023-05-10T00:54:35;2.70;;;2.40;;
45887;SDS011;31595;51.418;7.572;2023-05-10T00:57:02;3.58;;;2.58;;
45887;SDS011;31595;51.418;7.572;2023-05-10T00:59:33;3.78;;;2.60;;
45887;SDS011;31595;51.418;7.572;2023-05-10T01:02:01;5.20;;;2.83;;
45887;SDS011;31595;51.418;7.572;2023-05-10T01:06:57;3.97;;;3.47;;
45887;SDS011;31595;51.418;7.572;2023-05-10T01:09:26;4.47;;;3.47;;
45887;SDS011;31595;51.418;7.572;2023-05-10T01:11:54;3.90;;;2.97;;
45887;SDS011;31595;51.418;7.572;2023-05-10T01:14:22;5.35;;;3.28;;
45887;SDS011;31595;51.418;7.572;2023-05-10T01:16:49;3.40;;;3.00;;
45887;SDS011;31595;51.418;7.572;2023-05-10T01:19:18;3.50;;;2.95;;
45887;SDS011;31595;51.418;7.572;2023-05-10T01:21:50;4.53;;;3.20;;
45887;SDS011;31595;51.418;7.572;2023-05-10T01:33:37;4.60;;;3.92;;
45887;SDS011;31595;51.418;7.572;2023-05-10T01:36:13;5.65;;;4.10;;
45887;SDS011;31595;51.418;7.572;2023-05-10T01:38:53;5.45;;;4.20;;
45887;SDS011;31595;51.418;7.572;2023-05-10T01:41:32;5.32;;;4.30;;
45887;SDS011;31595;51.418;7.572;2023-05-10T01:44:09;5.70;;;4.25;;
45887;SDS011;31595;51.418;7.572;2023-05-10T01:46:44;6.20;;;4.60;;
45887;SDS011;31595;51.418;7.572;2023-05-10T01:49:18;6.05;;;5.07;;
45887;SDS011;31595;51.418;7.572;2023-05-10T01:51:50;11.45;;;5.93;;
45887;SDS011;31595;51.418;7.572;2023-05-10T01:54:21;6.80;;;5.07;;
45887;SDS011;31595;51.418;7.572;2023-05-10T01:56:52;8.40;;;6.35;;
45887;SDS011;31595;51.418;7.572;2023-05-10T01:59:27;9.57;;;6.90;;
45887;SDS011;31595;51.418;7.572;2023-05-10T02:02:04;7.70;;;6.65;;
45887;SDS011;31595;51.418;7.572;2023-05-10T02:04:35;9.38;;;5.70;;
45887;SDS011;31595;51.418;7.572;2023-05-10T02:07:04;8.07;;;6.07;;
45887;SDS011;31595;51.418;7.572;2023-05-10T02:09:32;10.60;;;7.10;;
45887;SDS011;31595;51.418;7.572;2023-05-10T02:12:01;8.48;;;6.35;;
45887;SDS011;31595;51.418;7.572;2023-05-10T02:14:34;7.35;;;5.72;;
45887;SDS011;31595;51.418;7.572;2023-05-10T02:17:04;8.43;;;6.05;;
45887;SDS011;31595;51.418;7.572;2023-05-10T02:19:35;12.00;;;6.78;;
45887;SDS011;31595;51.418;7.572;2023-05-10T02:22:05;7.90;;;6.22;;
45887;SDS011;31595;51.418;7.572;2023-05-10T02:27:03;9.07;;;7.13;;
45887;SDS011;31595;51.418;7.572;2023-05-10T02:29:31;12.25;;;8.27;;
45887;SDS011;31595;51.418;7.572;2023-05-10T02:32:00;9.43;;;7.10;;
45887;SDS011;31595;51.418;7.572;2023-05-10T02:34:29;8.98;;;7.43;;
45887;SDS011;31595;51.418;7.572;2023-05-10T02:36:58;10.40;;;8.18;;
45887;SDS011;31595;51.418;7.572;2023-05-10T02:39:29;11.82;;;8.02;;
45887;SDS011;31595;51.418;7.572;2023-05-10T02:41:59;11.13;;;8.85;;
45887;SDS011;31595;51.418;7.572;2023-05-10T02:44:28;11.15;;;8.48;;
45887;SDS011;31595;51.418;7.572;2023-05-10T02:46:56;10.13;;;7.72;;
45887;SDS011;31595;51.418;7.572;2023-05-10T02:49:24;12.00;;;9.05;;
45887;SDS011;31595;51.418;7.572;2023-05-10T02:51:54;10.43;;;7.10;;
45887;SDS011;31595;51.418;7.572;2023-05-10T02:54:29;11.00;;;7.72;;
45887;SDS011;31595;51.418;7.572;2023-05-10T02:57:03;9.70;;;7.60;;
45887;SDS011;31595;51.418;7.572;2023-05-10T02:59:32;11.23;;;7.85;;
45887;SDS011;31595;51.418;7.572;2023-05-10T03:02:00;9.88;;;7.53;;
45887;SDS011;31595;51.418;7.572;2023-05-10T03:04:31;6.85;;;5.80;;
45887;SDS011;31595;51.418;7.572;2023-05-10T03:06:58;6.93;;;6.22;;
45887;SDS011;31595;51.418;7.572;2023-05-10T03:09:25;7.70;;;6.90;;
45887;SDS011;31595;51.418;7.572;2023-05-10T03:11:56;7.53;;;6.72;;
45887;SDS011;31595;51.418;7.572;2023-05-10T03:14:33;7.72;;;6.93;;
45887;SDS011;31595;51.418;7.572;2023-05-10T03:17:10;7.75;;;6.35;;
45887;SDS011;31595;51.418;7.572;2023-05-10T03:19:43;5.47;;;4.28;;
45887;SDS011;31595;51.418;7.572;2023-05-10T03:22:31;4.57;;;3.70;;
45887;SDS011;31595;51.418;7.572;2023-05-10T03:25:01;4.78;;;2.80;;
45887;SDS011;31595;51.418;7.572;2023-05-10T03:27:35;4.68;;;2.78;;
45887;SDS011;31595;51.418;7.572;2023-05-10T03:30:06;3.80;;;2.35;;
45887;SDS011;31595;51.418;7.572;2023-05-10T03:35:05;3.58;;;1.70;;
45887;SDS011;31595;51.418;7.572;2023-05-10T03:37:33;3.78;;;1.80;;
45887;SDS011;31595;51.418;7.572;2023-05-10T03:40:00;2.20;;;1.75;;
45887;SDS011;31595;51.418;7.572;2023-05-10T03:42:28;3.45;;;1.98;;
45887;SDS011;31595;51.418;7.572;2023-05-10T03:44:56;3.80;;;2.90;;
45887;SDS011;31595;51.418;7.572;2023-05-10T03:47:24;3.77;;;2.40;;
45887;SDS011;31595;51.418;7.572;2023-05-10T03:49:51;4.13;;;2.83;;
45887;SDS011;31595;51.418;7.572;2023-05-10T03:52:19;6.50;;;3.70;;
45887;SDS011;31595;51.418;7.572;2023-05-10T03:54:46;7.68;;;6.10;;
45887;SDS011;31595;51.418;7.572;2023-05-10T03:57:13;10.85;;;8.18;;
45887;SDS011;31595;51.418;7.572;2023-05-10T03:59:40;13.13;;;10.63;;
45887;SDS011;31595;51.418;7.572;2023-05-10T04:02:09;13.77;;;11.30;;
45887;SDS011;31595;51.418;7.572;2023-05-10T04:04:36;14.10;;;12.18;;
45887;SDS011;31595;51.418;7.572;2023-05-10T04:07:03;17.80;;;13.13;;
45887;SDS011;31595;51.418;7.572;2023-05-10T04:09:31;16.35;;;13.45;;
45887;SDS011;31595;51.418;7.572;2023-05-10T04:11:58;16.67;;;13.82;;
45887;SDS011;31595;51.418;7.572;2023-05-10T04:14:25;19.95;;;14.75;;
45887;SDS011;31595;51.418;7.572;2023-05-10T04:16:52;15.57;;;12.82;;
45887;SDS011;31595;51.418;7.572;2023-05-10T04:19:22;17.77;;;14.00;;
45887;SDS011;31595;51.418;7.572;2023-05-10T04:21:49;17.83;;;14.65;;
45887;SDS011;31595;51.418;7.572;2023-05-10T04:24:16;18.33;;;14.93;;
45887;SDS011;31595;51.418;7.572;2023-05-10T04:26:44;17.20;;;14.02;;
45887;SDS011;31595;51.418;7.572;2023-05-10T04:29:11;17.23;;;14.02;;
45887;SDS011;31595;51.418;7.572;2023-05-10T04:31:38;16.00;;;13.40;;
45887;SDS011;31595;51.418;7.572;2023-05-10T04:34:06;15.25;;;12.38;;
45887;SDS011;31595;51.418;7.572;2023-05-10T04:36:35;17.52;;;13.88;;
45887;SDS011;31595;51.418;7.572;2023-05-10T04:39:02;16.50;;;13.07;;
45887;SDS011;31595;51.418;7.572;2023-05-10T04:41:29;18.25;;;13.65;;
45887;SDS011;31595;51.418;7.572;2023-05-10T04:43:57;18.00;;;13.38;;
45887;SDS011;31595;51.418;7.572;2023-05-10T04:46:24;17.88;;;13.48;;
45887;SDS011;31595;51.418;7.572;2023-05-10T04:48:51;17.08;;;13.48;;
45887;SDS011;31595;51.418;7.572;2023-05-10T04:51:18;16.42;;;13.63;;
45887;SDS011;31595;51.418;7.572;2023-05-10T04:53:47;16.13;;;12.95;;
45887;SDS011;31595;51.418;7.572;2023-05-10T04:56:14;13.90;;;11.25;;
45887;SDS011;31595;51.418;7.572;2023-05-10T04:58:42;16.35;;;12.85;;
45887;SDS011;31595;51.418;7.572;2023-05-10T05:01:09;14.40;;;11.60;;
45887;SDS011;31595;51.418;7.572;2023-05-10T05:03:36;14.55;;;11.43;;
45887;SDS011;31595;51.418;7.572;2023-05-10T05:06:04;14.75;;;11.00;;
45887;SDS011;31595;51.418;7.572;2023-05-10T05:08:31;12.95;;;9.77;;
45887;SDS011;31595;51.418;7.572;2023-05-10T05:11:00;14.68;;;10.23;;
45887;SDS011;31595;51.418;7.572;2023-05-10T05:13:27;13.48;;;10.55;;
45887;SDS011;31595;51.418;7.572;2023-05-10T05:15:55;15.38;;;10.27;;
45887;SDS011;31595;51.418;7.572;2023-05-10T05:18:22;14.27;;;10.65;;
45887;SDS011;31595;51.418;7.572;2023-05-10T05:20:49;16.30;;;12.82;;
45887;SDS011;31595;51.418;7.572;2023-05-10T05:23:16;17.40;;;13.50;;
45887;SDS011;31595;51.418;7.572;2023-05-10T05:25:44;16.98;;;13.60;;
45887;SDS011;31595;51.418;7.572;2023-05-10T05:28:12;20.27;;;14.18;;
45887;SDS011;31595;51.418;7.572;2023-05-10T05:30:39;21.40;;;14.90;;
45887;SDS011;31595;51.418;7.572;2023-05-10T05:33:07;19.85;;;15.77;;
45887;SDS011;31595;51.418;7.572;2023-05-10T05:35:34;23.17;;;17.17;;
45887;SDS011;31595;51.418;7.572;2023-05-10T05:38:01;25.13;;;17.48;;
45887;SDS011;31595;51.418;7.572;2023-05-10T05:40:28;25.45;;;17.58;;
45887;SDS011;31595;51.418;7.572;2023-05-10T05:42:56;24.08;;;18.00;;
45887;SDS011;31595;51.418;7.572;2023-05-10T05:45:24;26.52;;;18.27;;
45887;SDS011;31595;51.418;7.572;2023-05-10T05:47:51;31.38;;;21.20;;
45887;SDS011;31595;51.418;7.572;2023-05-10T05:50:19;30.52;;;21.63;;
45887;SDS011;31595;51.418;7.572;2023-05-10T05:52:46;28.98;;;20.35;;
45887;SDS011;31595;51.418;7.572;2023-05-10T05:55:13;31.50;;;20.77;;
45887;SDS011;31595;51.418;7.572;2023-05-10T05:57:40;31.63;;;21.98;;
45887;SDS011;31595;51.418;7.572;2023-05-10T06:00:08;33.50;;;23.52;;
45887;SDS011;31595;51.418;7.572;2023-05-10T06:02:37;30.92;;;22.23;;
45887;SDS011;31595;51.418;7.572;2023-05-10T06:05:05;31.27;;;21.35;;
45887;SDS011;31595;51.418;7.572;2023-05-10T06:07:33;35.58;;;23.77;;
45887;SDS011;31595;51.418;7.572;2023-05-10T06:10:00;29.27;;;20.67;;
45887;SDS011;31595;51.418;7.572;2023-05-10T06:12:28;31.02;;;22.83;;
45887;SDS011;31595;51.418;7.572;2023-05-10T06:14:55;27.83;;;20.45;;
45887;SDS011;31595;51.418;7.572;2023-05-10T06:17:22;33.65;;;21.88;;
45887;SDS011;31595;51.418;7.572;2023-05-10T06:19:52;27.42;;;20.38;;
45887;SDS011;31595;51.418;7.572;2023-05-10T06:22:19;28.20;;;20.83;;
45887;SDS011;31595;51.418;7.572;2023-05-10T06:24:48;27.63;;;20.23;;
45887;SDS011;31595;51.418;7.572;2023-05-10T06:27:15;31.85;;;21.90;;
45887;SDS011;31595;51.418;7.572;2023-05-10T06:29:42;31.15;;;22.88;;
45887;SDS011;31595;51.418;7.572;2023-05-10T06:32:10;33.08;;;23.15;;
45887;SDS011;31595;51.418;7.572;2023-05-10T06:34:37;29.85;;;20.40;;
45887;SDS011;31595;51.418;7.572;2023-05-10T06:37:05;31.73;;;23.00;;
45887;SDS011;31595;51.418;7.572;2023-05-10T06:39:33;29.67;;;21.42;;
45887;SDS011;31595;51.418;7.572;2023-05-10T06:42:00;30.08;;;20.95;;
45887;SDS011;31595;51.418;7.572;2023-05-10T06:44:30;29.60;;;22.48;;
45887;SDS011;31595;51.418;7.572;2023-05-10T06:46:57;29.33;;;20.98;;
45887;SDS011;31595;51.418;7.572;2023-05-10T06:49:24;30.63;;;20.42;;
45887;SDS011;31595;51.418;7.572;2023-05-10T06:51:51;30.38;;;22.23;;
45887;SDS011;31595;51.418;7.572;2023-05-10T06:54:20;31.08;;;21.50;;
45887;SDS011;31595;51.418;7.572;2023-05-10T06:59:15;31.48;;;23.17;;
45887;SDS011;31595;51.418;7.572;2023-05-10T07:01:44;30.83;;;21.65;;
45887;SDS011;31595;51.418;7.572;2023-05-10T07:04:11;28.83;;;21.48;;
45887;SDS011;31595;51.418;7.572;2023-05-10T07:06:39;28.13;;;22.05;;
45887;SDS011;31595;51.418;7.572;2023-05-10T07:09:06;32.33;;;22.92;;
45887;SDS011;31595;51.418;7.572;2023-05-10T07:11:34;32.78;;;23.25;;
45887;SDS011;31595;51.418;7.572;2023-05-10T07:14:03;28.45;;;21.38;;
45887;SDS011;31595;51.418;7.572;2023-05-10T07:16:30;28.70;;;21.13;;
45887;SDS011;31595;51.418;7.572;2023-05-10T07:18:58;29.27;;;22.67;;
45887;SDS011;31595;51.418;7.572;2023-05-10T07:21:27;25.63;;;20.40;;
45887;SDS011;31595;51.418;7.572;2023-05-10T07:23:55;24.95;;;19.70;;
45887;SDS011;31595;51.418;7.572;2023-05-10T07:26:22;30.88;;;19.55;;
45887;SDS011;31595;51.418;7.572;2023-05-10T07:28:51;24.77;;;20.27;;
45887;SDS011;31595;51.418;7.572;2023-05-10T07:31:18;22.03;;;16.23;;
45887;SDS011;31595;51.418;7.572;2023-05-10T07:33:45;25.25;;;18.20;;
45887;SDS011;31595;51.418;7.572;2023-05-10T07:36:12;21.92;;;17.98;;
45887;SDS011;31595;51.418;7.572;2023-05-10T07:38:40;21.27;;;16.38;;
45887;SDS011;31595;51.418;7.572;2023-05-10T07:41:07;19.65;;;14.52;;
45887;SDS011;31595;51.418;7.572;2023-05-10T07:43:34;18.17;;;14.98;;
45887;SDS011;31595;51.418;7.572;2023-05-10T07:46:03;17.02;;;14.38;;
45887;SDS011;31595;51.418;7.572;2023-05-10T07:48:30;16.48;;;14.38;;
45887;SDS011;31595;51.418;7.572;2023-05-10T07:50:58;17.38;;;13.75;;
45887;SDS011;31595;51.418;7.572;2023-05-10T07:53:25;19.50;;;14.73;;
45887;SDS011;31595;51.418;7.572;2023-05-10T07:55:53;16.08;;;13.00;;
45887;SDS011;31595;51.418;7.572;2023-05-10T07:58:23;17.00;;;12.88;;
45887;SDS011;31595;51.418;7.572;2023-05-10T08:00:51;14.73;;;12.40;;
45887;SDS011;31595;51.418;7.572;2023-05-10T08:03:20;13.90;;;11.93;;
45887;SDS011;31595;51.418;7.572;2023-05-10T08:05:47;14.95;;;11.63;;
45887;SDS011;31595;51.418;7.572;2023-05-10T08:08:14;13.82;;;11.93;;
45887;SDS011;31595;51.418;7.572;2023-05-10T08:10:42;14.88;;;12.48;;
45887;SDS011;31595;51.418;7.572;2023-05-10T08:13:09;16.63;;;13.48;;
45887;SDS011;31595;51.418;7.572;2023-05-10T08:15:36;15.30;;;12.60;;
45887;SDS011;31595;51.418;7.572;2023-05-10T08:18:04;14.82;;;12.07;;
45887;SDS011;31595;51.418;7.572;2023-05-10T08:20:32;15.45;;;11.68;;
45887;SDS011;31595;51.418;7.572;2023-05-10T08:23:00;14.93;;;12.07;;
45887;SDS011;31595;51.418;7.572;2023-05-10T08:25:27;12.45;;;10.82;;
45887;SDS011;31595;51.418;7.572;2023-05-10T08:27:54;13.25;;;11.18;;
45887;SDS011;31595;51.418;7.572;2023-05-10T08:30:21;12.45;;;9.07;;
45887;SDS011;31595;51.418;7.572;2023-05-10T08:32:49;11.70;;;9.25;;
45887;SDS011;31595;51.418;7.572;2023-05-10T08:35:16;11.10;;;8.65;;
45887;SDS011;31595;51.418;7.572;2023-05-10T08:37:44;16.17;;;8.43;;
45887;SDS011;31595;51.418;7.572;2023-05-10T08:40:12;14.85;;;8.50;;
45887;SDS011;31595;51.418;7.572;2023-05-10T08:42:41;7.82;;;7.07;;
45887;SDS011;31595;51.418;7.572;2023-05-10T08:45:13;9.68;;;7.63;;
45887;SDS011;31595;51.418;7.572;2023-05-10T08:47:42;11.75;;;7.78;;
45887;SDS011;31595;51.418;7.572;2023-05-10T08:50:10;9.30;;;8.18;;
45887;SDS011;31595;51.418;7.572;2023-05-10T08:52:38;9.85;;;8.43;;
45887;SDS011;31595;51.418;7.572;2023-05-10T08:55:09;9.77;;;8.27;;
45887;SDS011;31595;51.418;7.572;2023-05-10T08:57:37;9.60;;;8.32;;
45887;SDS011;31595;51.418;7.572;2023-05-10T09:00:04;10.35;;;8.45;;
45887;SDS011;31595;51.418;7.572;2023-05-10T09:05:01;9.10;;;7.15;;
45887;SDS011;31595;51.418;7.572;2023-05-10T09:07:30;8.10;;;7.30;;
45887;SDS011;31595;51.418;7.572;2023-05-10T09:09:58;7.35;;;6.32;;
45887;SDS011;31595;51.418;7.572;2023-05-10T09:12:27;9.75;;;7.43;;
45887;SDS011;31595;51.418;7.572;2023-05-10T09:14:54;8.18;;;7.20;;
45887;SDS011;31595;51.418;7.572;2023-05-10T09:17:24;9.00;;;7.32;;
45887;SDS011;31595;51.418;7.572;2023-05-10T09:19:56;8.50;;;6.60;;
45887;SDS011;31595;51.418;7.572;2023-05-10T09:22:24;8.48;;;5.65;;
45887;SDS011;31595;51.418;7.572;2023-05-10T09:25:03;5.72;;;4.85;;
45887;SDS011;31595;51.418;7.572;2023-05-10T09:29:59;7.95;;;5.72;;
45887;SDS011;31595;51.418;7.572;2023-05-10T09:32:35;6.35;;;5.25;;
45887;SDS011;31595;51.418;7.572;2023-05-10T09:35:07;7.55;;;5.05;;
45887;SDS011;31595;51.418;7.572;2023-05-10T09:37:35;6.85;;;4.68;;
45887;SDS011;31595;51.418;7.572;2023-05-10T09:40:05;7.07;;;4.90;;
45887;SDS011;31595;51.418;7.572;2023-05-10T09:42:35;7.63;;;5.53;;
45887;SDS011;31595;51.418;7.572;2023-05-10T09:45:03;9.65;;;5.35;;
45887;SDS011;31595;51.418;7.572;2023-05-10T09:47:31;7.70;;;6.55;;
45887;SDS011;31595;51.418;7.572;2023-05-10T09:50:11;10.20;;;6.07;;
45887;SDS011;31595;51.418;7.572;2023-05-10T09:52:45;7.20;;;5.85;;
45887;SDS011;31595;51.418;7.572;2023-05-10T09:55:14;7.38;;;6.45;;
45887;SDS011;31595;51.418;7.572;2023-05-10T09:57:43;8.50;;;6.60;;
45887;SDS011;31595;51.418;7.572;2023-05-10T10:00:12;10.52;;;6.50;;
45887;SDS011;31595;51.418;7.572;2023-05-10T10:02:45;9.07;;;7.43;;
45887;SDS011;31595;51.418;7.572;2023-05-10T10:05:13;7.70;;;5.90;;
45887;SDS011;31595;51.418;7.572;2023-05-10T10:07:40;7.75;;;5.82;;
45887;SDS011;31595;51.418;7.572;2023-05-10T10:10:08;6.28;;;5.00;;
45887;SDS011;31595;51.418;7.572;2023-05-10T10:12:38;5.85;;;4.50;;
45887;SDS011;31595;51.418;7.572;2023-05-10T10:15:08;4.18;;;3.47;;
45887;SDS011;31595;51.418;7.572;2023-05-10T10:17:37;5.75;;;4.45;;
45887;SDS011;31595;51.418;7.572;2023-05-10T10:20:06;5.80;;;4.80;;
45887;SDS011;31595;51.418;7.572;2023-05-10T10:22:34;5.25;;;4.75;;
45887;SDS011;31595;51.418;7.572;2023-05-10T10:25:01;5.07;;;4.32;;
45887;SDS011;31595;51.418;7.572;2023-05-10T10:27:33;6.43;;;5.80;;
45887;SDS011;31595;51.418;7.572;2023-05-10T10:30:13;6.13;;;4.47;;
45887;SDS011;31595;51.418;7.572;2023-05-10T10:33:01;5.60;;;4.38;;
45887;SDS011;31595;51.418;7.572;2023-05-10T10:35:40;5.50;;;4.78;;
45887;SDS011;31595;51.418;7.572;2023-05-10T10:38:07;7.93;;;5.10;;
45887;SDS011;31595;51.418;7.572;2023-05-10T10:40:35;8.02;;;5.20;;
45887;SDS011;31595;51.418;7.572;2023-05-10T10:43:22;7.50;;;5.53;;
45887;SDS011;31595;51.418;7.572;2023-05-10T10:46:13;6.68;;;5.07;;
45887;SDS011;31595;51.418;7.572;2023-05-10T10:48:47;7.78;;;5.43;;
45887;SDS011;31595;51.418;7.572;2023-05-10T10:51:15;7.00;;;5.72;;
45887;SDS011;31595;51.418;7.572;2023-05-10T10:53:42;7.45;;;5.65;;
45887;SDS011;31595;51.418;7.572;2023-05-10T10:56:11;7.07;;;5.43;;
45887;SDS011;31595;51.418;7.572;2023-05-10T10:58:40;7.97;;;5.22;;
45887;SDS011;31595;51.418;7.572;2023-05-10T11:01:17;6.82;;;5.32;;
45887;SDS011;31595;51.418;7.572;2023-05-10T11:06:44;8.40;;;5.90;;
45887;SDS011;31595;51.418;7.572;2023-05-10T11:09:11;9.93;;;6.97;;
45887;SDS011;31595;51.418;7.572;2023-05-10T11:11:49;13.07;;;8.20;;
45887;SDS011;31595;51.418;7.572;2023-05-10T11:14:20;10.82;;;8.98;;
45887;SDS011;31595;51.418;7.572;2023-05-10T11:16:50;13.43;;;10.73;;
45887;SDS011;31595;51.418;7.572;2023-05-10T11:19:17;16.20;;;12.38;;
45887;SDS011;31595;51.418;7.572;2023-05-10T11:21:46;15.63;;;11.93;;
45887;SDS011;31595;51.418;7.572;2023-05-10T11:24:16;17.38;;;12.52;;
45887;SDS011;31595;51.418;7.572;2023-05-10T11:26:44;16.58;;;11.50;;
45887;SDS011;31595;51.418;7.572;2023-05-10T11:29:12;15.35;;;11.90;;
45887;SDS011;31595;51.418;7.572;2023-05-10T11:31:42;15.85;;;13.65;;
45887;SDS011;31595;51.418;7.572;2023-05-10T11:34:13;15.18;;;11.55;;
45887;SDS011;31595;51.418;7.572;2023-05-10T11:36:50;17.48;;;11.98;;
45887;SDS011;31595;51.418;7.572;2023-05-10T11:39:19;16.75;;;12.02;;
45887;SDS011;31595;51.418;7.572;2023-05-10T11:41:47;15.80;;;12.45;;
45887;SDS011;31595;51.418;7.572;2023-05-10T11:44:16;14.52;;;11.10;;
45887;SDS011;31595;51.418;7.572;2023-05-10T11:46:43;13.88;;;9.75;;
45887;SDS011;31595;51.418;7.572;2023-05-10T11:49:12;12.52;;;8.75;;
45887;SDS011;31595;51.418;7.572;2023-05-10T11:51:39;9.30;;;7.57;;
45887;SDS011;31595;51.418;7.572;2023-05-10T11:56:36;8.93;;;7.07;;
45887;SDS011;31595;51.418;7.572;2023-05-10T11:59:04;7.85;;;6.57;;
45887;SDS011;31595;51.418;7.572;2023-05-10T12:01:31;8.52;;;6.32;;
45887;SDS011;31595;51.418;7.572;2023-05-10T12:03:59;8.88;;;5.90;;
45887;SDS011;31595;51.418;7.572;2023-05-10T12:06:30;8.60;;;6.80;;
45887;SDS011;31595;51.418;7.572;2023-05-10T12:08:58;8.20;;;6.78;;
45887;SDS011;31595;51.418;7.572;2023-05-10T12:11:26;9.20;;;7.53;;
45887;SDS011;31595;51.418;7.572;2023-05-10T12:13:54;12.18;;;8.32;;
45887;SDS011;31595;51.418;7.572;2023-05-10T12:16:23;12.02;;;8.27;;
45887;SDS011;31595;51.418;7.572;2023-05-10T12:18:51;9.25;;;8.25;;
45887;SDS011;31595;51.418;7.572;2023-05-10T12:21:20;9.53;;;7.80;;
45887;SDS011;31595;51.418;7.572;2023-05-10T12:23:49;10.95;;;8.73;;
45887;SDS011;31595;51.418;7.572;2023-05-10T12:26:18;9.60;;;8.13;;
45887;SDS011;31595;51.418;7.572;2023-05-10T12:28:47;10.65;;;8.00;;
45887;SDS011;31595;51.418;7.572;2023-05-10T12:31:15;9.20;;;7.68;;
45887;SDS011;31595;51.418;7.572;2023-05-10T12:33:43;9.20;;;6.95;;
45887;SDS011;31595;51.418;7.572;2023-05-10T12:36:13;9.02;;;7.38;;
45887;SDS011;31595;51.418;7.572;2023-05-10T12:38:42;9.70;;;6.95;;
45887;SDS011;31595;51.418;7.572;2023-05-10T12:41:11;8.73;;;6.60;;
45887;SDS011;31595;51.418;7.572;2023-05-10T12:43:41;9.15;;;6.70;;
45887;SDS011;31595;51.418;7.572;2023-05-10T12:46:09;8.52;;;6.07;;
45887;SDS011;31595;51.418;7.572;2023-05-10T12:48:37;8.35;;;5.95;;
45887;SDS011;31595;51.418;7.572;2023-05-10T12:51:06;8.23;;;6.43;;
45887;SDS011;31595;51.418;7.572;2023-05-10T12:53:35;9.60;;;7.10;;
45887;SDS011;31595;51.418;7.572;2023-05-10T12:56:03;7.70;;;6.30;;
45887;SDS011;31595;51.418;7.572;2023-05-10T12:58:32;7.22;;;6.05;;
45887;SDS011;31595;51.418;7.572;2023-05-10T13:00:59;8.65;;;6.93;;
45887;SDS011;31595;51.418;7.572;2023-05-10T13:03:26;10.23;;;7.38;;
45887;SDS011;31595;51.418;7.572;2023-05-10T13:05:54;8.90;;;7.15;;
45887;SDS011;31595;51.418;7.572;2023-05-10T13:08:21;8.40;;;6.97;;
45887;SDS011;31595;51.418;7.572;2023-05-10T13:10:48;8.05;;;7.07;;
45887;SDS011;31595;51.418;7.572;2023-05-10T13:13:16;10.77;;;7.90;;
45887;SDS011;31595;51.418;7.572;2023-05-10T13:15:45;8.50;;;7.60;;
45887;SDS011;31595;51.418;7.572;2023-05-10T13:18:12;10.50;;;8.02;;
45887;SDS011;31595;51.418;7.572;2023-05-10T13:20:39;7.78;;;6.97;;
45887;SDS011;31595;51.418;7.572;2023-05-10T13:23:08;8.40;;;7.22;;
45887;SDS011;31595;51.418;7.572;2023-05-10T13:25:35;8.13;;;7.20;;
45887;SDS011;31595;51.418;7.572;2023-05-10T13:28:03;10.15;;;7.32;;
45887;SDS011;31595;51.418;7.572;2023-05-10T13:30:30;8.25;;;7.43;;
45887;SDS011;31595;51.418;7.572;2023-05-10T13:32:59;8.32;;;7.25;;
45887;SDS011;31595;51.418;7.572;2023-05-10T13:35:26;7.22;;;6.13;;
45887;SDS011;31595;51.418;7.572;2023-05-10T13:37:53;7.40;;;5.38;;
45887;SDS011;31595;51.418;7.572;2023-05-10T13:40:23;7.55;;;6.25;;
45887;SDS011;31595;51.418;7.572;2023-05-10T13:42:50;8.55;;;6.60;;
45887;SDS011;31595;51.418;7.572;2023-05-10T13:45:18;6.25;;;5.38;;
45887;SDS011;31595;51.418;7.572;2023-05-10T13:47:46;8.60;;;5.22;;
45887;SDS011;31595;51.418;7.572;2023-05-10T13:50:16;6.93;;;6.18;;
45887;SDS011;31595;51.418;7.572;2023-05-10T13:55:11;4.93;;;4.40;;
45887;SDS011;31595;51.418;7.572;2023-05-10T13:57:39;5.67;;;5.07;;
45887;SDS011;31595;51.418;7.572;2023-05-10T14:00:07;6.35;;;5.75;;
45887;SDS011;31595;51.418;7.572;2023-05-10T14:02:35;6.28;;;5.43;;
45887;SDS011;31595;51.418;7.572;2023-05-10T14:05:02;4.97;;;4.47;;
45887;SDS011;31595;51.418;7.572;2023-05-10T14:07:31;6.60;;;5.40;;
45887;SDS011;31595;51.418;7.572;2023-05-10T14:09:59;6.38;;;5.45;;
45887;SDS011;31595;51.418;7.572;2023-05-10T14:12:26;8.35;;;6.03;;
45887;SDS011;31595;51.418;7.572;2023-05-10T14:14:54;7.38;;;6.07;;
45887;SDS011;31595;51.418;7.572;2023-05-10T14:17:24;8.38;;;7.15;;
45887;SDS011;31595;51.418;7.572;2023-05-10T14:19:52;7.22;;;6.53;;
45887;SDS011;31595;51.418;7.572;2023-05-10T14:22:19;8.15;;;7.10;;
45887;SDS011;31595;51.418;7.572;2023-05-10T14:24:49;7.40;;;6.22;;
45887;SDS011;31595;51.418;7.572;2023-05-10T14:27:16;8.90;;;7.15;;
45887;SDS011;31595;51.418;7.572;2023-05-10T14:29:43;7.38;;;6.57;;
45887;SDS011;31595;51.418;7.572;2023-05-10T14:32:11;8.32;;;6.68;;
45887;SDS011;31595;51.418;7.572;2023-05-10T14:34:38;7.85;;;7.05;;
45887;SDS011;31595;51.418;7.572;2023-05-10T14:37:09;7.03;;;6.30;;
45887;SDS011;31595;51.418;7.572;2023-05-10T14:39:37;9.30;;;7.22;;
45887;SDS011;31595;51.418;7.572;2023-05-10T14:42:06;7.90;;;7.10;;
45887;SDS011;31595;51.418;7.572;2023-05-10T14:44:33;6.85;;;6.15;;
45887;SDS011;31595;51.418;7.572;2023-05-10T14:47:00;7.32;;;6.50;;
45887;SDS011;31595;51.418;7.572;2023-05-10T14:49:28;7.00;;;6.30;;
45887;SDS011;31595;51.418;7.572;2023-05-10T14:51:55;7.65;;;6.68;;
45887;SDS011;31595;51.418;7.572;2023-05-10T14:54:22;9.88;;;6.75;;
45887;SDS011;31595;51.418;7.572;2023-05-10T14:56:49;6.50;;;5.85;;
45887;SDS011;31595;51.418;7.572;2023-05-10T14:59:18;6.75;;;6.05;;
45887;SDS011;31595;51.418;7.572;2023-05-10T15:01:45;8.13;;;7.30;;
45887;SDS011;31595;51.418;7.572;2023-05-10T15:04:12;7.55;;;6.68;;
45887;SDS011;31595;51.418;7.572;2023-05-10T15:06:42;9.77;;;6.65;;
45887;SDS011;31595;51.418;7.572;2023-05-10T15:09:09;7.35;;;6.60;;
45887;SDS011;31595;51.418;7.572;2023-05-10T15:11:36;8.00;;;6.70;;
45887;SDS011;31595;51.418;7.572;2023-05-10T15:14:04;7.90;;;6.32;;
45887;SDS011;31595;51.418;7.572;2023-05-10T15:16:33;7.43;;;6.00;;
45887;SDS011;31595;51.418;7.572;2023-05-10T15:19:00;8.30;;;6.32;;
45887;SDS011;31595;51.418;7.572;2023-05-10T15:21:27;6.95;;;4.90;;